Time;durP1;ratioP1;P1;durP2;ratioP2;P2;SDS_P1;SDS_P2;PMS_P1;PMS_P2;Temp;Humidity;BMP_temperature;BMP_pressure;BME280_temperature;BME280_humidity;BME280_pressure;Samples;Min_cycle;Max_cycle;Signal;HPM_P1;HPM_P2
2024/01/26 00:00:57;;;;;;;156.07;64.72;;;9.00;99.90;;;;;;6098932;23;20362;-76
2024/01/26 00:03:23;;;;;;;126.28;60.03;;;9.00;99.90;;;;;;6099025;23;20010;-76
2024/01/26 00:05:49;;;;;;;161.70;65.15;;;9.00;99.90;;;;;;6099455;23;20016;-76
2024/01/26 00:08:17;;;;;;;111.93;58.03;;;9.00;99.90;;;;;;6098859;23;20014;-76
2024/01/26 00:10:43;;;;;;;132.38;60.72;;;9.10;99.90;;;;;;6123607;23;20387;-76
2024/01/26 00:13:10;;;;;;;175.45;65.13;;;9.00;99.90;;;;;;6122834;23;20065;-76
2024/01/26 00:15:35;;;;;;;117.70;55.40;;;9.00;99.90;;;;;;6099046;23;20025;-76
2024/01/26 00:18:01;;;;;;;115.28;56.70;;;9.10;99.90;;;;;;6098898;23;20014;-75
2024/01/26 00:20:27;;;;;;;111.03;56.35;;;9.00;99.90;;;;;;6099305;23;20010;-75
2024/01/26 00:22:52;;;;;;;114.10;56.50;;;9.00;99.90;;;;;;6098892;23;20093;-75
2024/01/26 00:25:18;;;;;;;124.13;58.13;;;9.10;99.90;;;;;;6123243;23;20060;-75
2024/01/26 00:27:43;;;;;;;98.40;54.00;;;9.10;99.90;;;;;;6098743;23;20017;-75
2024/01/26 00:30:09;;;;;;;97.75;53.05;;;9.10;99.90;;;;;;6099282;23;20017;-75
2024/01/26 00:32:35;;;;;;;110.00;53.95;;;9.10;99.90;;;;;;6123253;23;20097;-75
2024/01/26 00:35:00;;;;;;;107.82;53.47;;;9.20;99.90;;;;;;6098509;23;20056;-75
2024/01/26 00:37:26;;;;;;;108.60;52.75;;;9.10;99.90;;;;;;6098680;23;20014;-75
2024/01/26 00:39:52;;;;;;;111.35;55.50;;;9.10;99.90;;;;;;6099210;23;20014;-75
2024/01/26 00:42:17;;;;;;;101.85;53.90;;;9.10;99.90;;;;;;6123156;23;20357;-75
2024/01/26 00:44:43;;;;;;;105.82;53.72;;;9.20;99.90;;;;;;6098499;23;20641;-75
2024/01/26 00:47:09;;;;;;;87.47;51.60;;;9.10;99.90;;;;;;6122927;23;20449;-75
2024/01/26 00:49:35;;;;;;;108.00;52.88;;;9.20;99.90;;;;;;6123579;23;20088;-75
2024/01/26 00:52:01;;;;;;;114.68;53.25;;;9.10;99.90;;;;;;6098745;23;20413;-75
2024/01/26 00:54:27;;;;;;;90.80;51.40;;;9.10;99.90;;;;;;6098045;23;20014;-75
2024/01/26 00:56:53;;;;;;;119.35;54.00;;;9.20;99.90;;;;;;6098748;23;20481;-75
2024/01/26 00:59:18;;;;;;;92.15;51.83;;;9.10;99.90;;;;;;6123529;23;20014;-75
2024/01/26 01:01:44;;;;;;;91.38;52.83;;;9.20;99.90;;;;;;6122804;23;20024;-75
2024/01/26 01:04:09;;;;;;;105.95;52.72;;;9.20;99.90;;;;;;6098806;23;20049;-75
2024/01/26 01:06:35;;;;;;;94.35;53.60;;;9.20;99.90;;;;;;6098752;23;20014;-75
2024/01/26 01:09:01;;;;;;;85.60;51.30;;;9.20;99.90;;;;;;6098386;23;20100;-75
2024/01/26 01:11:27;;;;;;;95.07;51.97;;;9.20;99.90;;;;;;6098075;23;20451;-75
2024/01/26 01:13:52;;;;;;;85.07;50.25;;;9.20;99.90;;;;;;6098641;23;20164;-75
2024/01/26 01:16:19;;;;;;;80.65;49.30;;;9.20;99.90;;;;;;6098422;23;20049;-75
2024/01/26 01:18:46;;;;;;;74.88;47.47;;;9.20;99.90;;;;;;6098562;23;20350;-75
2024/01/26 01:21:12;;;;;;;78.93;48.75;;;9.20;99.90;;;;;;6122861;23;20447;-75
2024/01/26 01:23:37;;;;;;;78.72;47.72;;;9.20;99.90;;;;;;6123020;23;20021;-75
2024/01/26 01:26:03;;;;;;;82.88;48.08;;;9.20;99.90;;;;;;6098304;23;20010;-75
2024/01/26 01:28:28;;;;;;;89.93;47.72;;;9.20;99.90;;;;;;6123029;23;20097;-75
2024/01/26 01:30:54;;;;;;;62.58;43.67;;;9.20;99.90;;;;;;6122933;23;20014;-75
2024/01/26 01:33:20;;;;;;;70.75;43.85;;;9.20;99.90;;;;;;6098327;23;20096;-75
2024/01/26 01:35:45;;;;;;;61.08;42.97;;;9.20;99.90;;;;;;6098743;23;20018;-75
2024/01/26 01:38:11;;;;;;;69.65;44.55;;;9.10;99.90;;;;;;6098714;23;20045;-75
2024/01/26 01:40:36;;;;;;;63.33;43.42;;;9.20;99.90;;;;;;6123162;23;20062;-75
2024/01/26 01:43:02;;;;;;;61.35;42.17;;;9.20;99.90;;;;;;6098639;23;20320;-75
2024/01/26 01:45:28;;;;;;;55.13;40.85;;;9.20;99.90;;;;;;6097938;23;20514;-75
2024/01/26 01:47:53;;;;;;;58.38;41.33;;;9.20;99.90;;;;;;6098694;23;20018;-75
2024/01/26 01:50:19;;;;;;;60.97;40.63;;;9.20;99.90;;;;;;6098888;23;20014;-75
2024/01/26 01:52:47;;;;;;;54.95;40.05;;;9.20;99.90;;;;;;6098913;23;20411;-75
2024/01/26 01:55:14;;;;;;;49.13;39.00;;;9.20;99.90;;;;;;6097428;23;20018;-75
2024/01/26 01:57:41;;;;;;;48.53;37.58;;;9.20;99.90;;;;;;6098215;23;20052;-75
2024/01/26 02:00:15;;;;;;;50.40;38.05;;;9.20;99.90;;;;;;6100709;23;20036;-75
2024/01/26 02:02:46;;;;;;;44.45;36.75;;;9.20;99.90;;;;;;6100327;23;20085;-75
2024/01/26 02:05:12;;;;;;;40.03;34.58;;;9.20;99.90;;;;;;6099816;23;20021;-75
2024/01/26 02:07:39;;;;;;;53.17;39.35;;;9.20;99.90;;;;;;6124836;23;20017;-75
2024/01/26 02:10:07;;;;;;;44.65;36.00;;;9.30;99.90;;;;;;6124529;23;20354;-75
2024/01/26 02:12:33;;;;;;;50.85;38.08;;;9.30;99.90;;;;;;6124988;23;20021;-75
2024/01/26 02:14:59;;;;;;;43.05;36.67;;;9.30;99.90;;;;;;6124613;23;20069;-75
2024/01/26 02:17:31;;;;;;;44.45;37.22;;;9.30;99.90;;;;;;6100223;23;20018;-75
2024/01/26 02:19:57;;;;;;;44.72;38.05;;;9.30;99.90;;;;;;6099406;23;20026;-75
2024/01/26 02:22:23;;;;;;;43.40;37.60;;;9.30;99.90;;;;;;6124439;23;20398;-75
2024/01/26 02:24:49;;;;;;;48.83;39.30;;;9.40;99.90;;;;;;6124134;23;20092;-75
2024/01/26 02:27:14;;;;;;;44.28;37.70;;;9.30;99.90;;;;;;6125642;23;20013;-75
2024/01/26 02:29:40;;;;;;;45.95;37.80;;;9.30;99.90;;;;;;6100562;23;20038;-75
2024/01/26 02:32:07;;;;;;;42.30;36.70;;;9.30;99.90;;;;;;6100191;23;20026;-75
2024/01/26 02:34:33;;;;;;;41.53;36.88;;;9.30;99.90;;;;;;6099715;23;20019;-75
2024/01/26 02:36:58;;;;;;;41.38;36.92;;;9.30;99.90;;;;;;6099772;23;20350;-75
2024/01/26 02:39:24;;;;;;;40.92;36.45;;;9.30;99.90;;;;;;6100514;23;20017;-75
2024/01/26 02:41:49;;;;;;;41.53;37.15;;;9.30;99.90;;;;;;6100000;23;20109;-75
2024/01/26 02:44:15;;;;;;;42.05;36.90;;;9.30;99.90;;;;;;6124401;23;20025;-75
2024/01/26 02:46:41;;;;;;;41.17;36.78;;;9.30;99.90;;;;;;6124295;23;20395;-75
2024/01/26 02:49:07;;;;;;;42.13;37.58;;;9.30;99.90;;;;;;6099650;23;20010;-75
2024/01/26 02:51:32;;;;;;;42.65;38.20;;;9.30;99.90;;;;;;6124251;23;20328;-75
2024/01/26 02:54:00;;;;;;;41.30;37.05;;;9.30;99.90;;;;;;6099850;23;20496;-75
2024/01/26 02:56:25;;;;;;;48.08;40.55;;;9.30;99.90;;;;;;6099280;23;20096;-74
2024/01/26 02:58:51;;;;;;;41.45;36.95;;;9.30;99.90;;;;;;6099039;23;20097;-74
2024/01/26 03:01:16;;;;;;;42.53;37.95;;;9.40;99.90;;;;;;6123882;23;20018;-74
2024/01/26 03:03:42;;;;;;;42.95;38.35;;;9.30;99.90;;;;;;6099479;23;20014;-74
2024/01/26 03:06:11;;;;;;;45.58;38.63;;;9.40;99.90;;;;;;6099988;23;20435;-74
2024/01/26 03:08:37;;;;;;;42.40;37.97;;;9.40;99.90;;;;;;6124021;23;20057;-74
2024/01/26 03:11:03;;;;;;;43.72;38.80;;;9.40;99.90;;;;;;6099779;23;20096;-74
2024/01/26 03:13:29;;;;;;;45.40;38.80;;;9.40;99.90;;;;;;6098984;23;20022;-74
2024/01/26 03:15:55;;;;;;;41.40;35.92;;;9.40;99.90;;;;;;6123819;23;20010;-74
2024/01/26 03:18:21;;;;;;;41.75;35.55;;;9.40;99.90;;;;;;6124163;23;20049;-74
2024/01/26 03:20:47;;;;;;;46.38;37.45;;;9.50;99.90;;;;;;6099387;23;20303;-74
2024/01/26 03:23:13;;;;;;;40.03;35.45;;;9.40;99.90;;;;;;6122835;23;20085;-74
2024/01/26 03:25:39;;;;;;;44.42;36.13;;;9.40;99.90;;;;;;6099258;23;20052;-74
2024/01/26 03:28:06;;;;;;;41.85;35.45;;;9.40;99.90;;;;;;6124822;23;20006;-75
2024/01/26 03:30:34;;;;;;;45.67;36.78;;;9.50;99.90;;;;;;6124219;23;20403;-74
2024/01/26 03:33:00;;;;;;;41.80;36.20;;;9.50;99.90;;;;;;6124218;23;20014;-75
2024/01/26 03:35:27;;;;;;;43.13;35.70;;;9.50;99.90;;;;;;6099851;23;20120;-74
2024/01/26 03:37:53;;;;;;;41.95;35.47;;;9.40;99.90;;;;;;6099155;23;20182;-74
2024/01/26 03:40:18;;;;;;;44.25;34.40;;;9.50;99.90;;;;;;6124109;23;20116;-74
2024/01/26 03:42:44;;;;;;;46.20;36.40;;;9.50;99.90;;;;;;6099498;23;20499;-74
2024/01/26 03:45:10;;;;;;;41.80;35.10;;;9.50;99.90;;;;;;6099690;23;20046;-75
2024/01/26 03:47:35;;;;;;;44.17;34.85;;;9.50;99.90;;;;;;6099456;23;20089;-75
2024/01/26 03:50:01;;;;;;;39.90;35.15;;;9.60;99.90;;;;;;6099592;23;20045;-76
2024/01/26 03:52:27;;;;;;;38.42;34.20;;;9.60;99.90;;;;;;6098738;23;20062;-74
2024/01/26 03:54:53;;;;;;;38.30;34.10;;;9.60;99.90;;;;;;6099140;23;20343;-74
2024/01/26 03:57:19;;;;;;;37.53;33.47;;;9.60;99.90;;;;;;6123807;23;20018;-74
2024/01/26 03:59:44;;;;;;;40.20;34.38;;;9.60;99.90;;;;;;6123736;23;20017;-74
2024/01/26 04:02:10;;;;;;;38.65;33.70;;;9.70;99.90;;;;;;6099437;23;20351;-75
2024/01/26 04:04:36;;;;;;;37.38;33.40;;;9.70;99.90;;;;;;6098882;23;20064;-75
2024/01/26 04:07:02;;;;;;;39.35;33.88;;;9.70;99.90;;;;;;6098911;23;20088;-74
2024/01/26 04:09:28;;;;;;;38.25;34.15;;;9.70;99.90;;;;;;6123404;23;20049;-75
2024/01/26 04:11:53;;;;;;;36.35;32.55;;;9.70;99.90;;;;;;6123979;23;20044;-75
2024/01/26 04:14:19;;;;;;;38.53;32.85;;;9.70;99.90;;;;;;6123920;23;20021;-75
2024/01/26 04:16:45;;;;;;;39.70;35.40;;;9.70;99.90;;;;;;6099173;23;20372;-75
2024/01/26 04:19:11;;;;;;;39.25;35.05;;;9.70;99.90;;;;;;6099285;23;20017;-74
2024/01/26 04:21:36;;;;;;;37.65;33.60;;;9.80;99.90;;;;;;6098747;23;20022;-74
2024/01/26 04:24:02;;;;;;;39.72;35.33;;;9.80;99.90;;;;;;6098484;23;20510;-75
2024/01/26 04:26:28;;;;;;;43.65;38.15;;;9.70;99.90;;;;;;6098694;23;20013;-75
2024/01/26 04:28:53;;;;;;;39.70;35.47;;;9.80;99.90;;;;;;6100147;23;20010;-74
2024/01/26 04:31:22;;;;;;;41.85;37.33;;;9.80;99.90;;;;;;6099868;23;20036;-75
2024/01/26 04:33:48;;;;;;;41.17;36.88;;;9.80;99.90;;;;;;6100852;23;20032;-74
2024/01/26 04:36:13;;;;;;;41.72;37.50;;;9.80;99.90;;;;;;6100324;23;20022;-74
2024/01/26 04:38:39;;;;;;;43.72;39.25;;;9.90;99.90;;;;;;6099134;23;20020;-75
2024/01/26 04:41:05;;;;;;;42.42;38.05;;;9.90;99.90;;;;;;6099551;23;20072;-75
2024/01/26 04:43:30;;;;;;;43.78;39.20;;;9.90;99.90;;;;;;6098827;23;20102;-75
2024/01/26 04:45:56;;;;;;;41.90;37.67;;;9.90;99.90;;;;;;6099603;23;20010;-74
2024/01/26 04:48:22;;;;;;;43.63;38.95;;;9.90;99.90;;;;;;6099268;23;20347;-75
2024/01/26 04:50:48;;;;;;;41.90;37.88;;;10.00;99.90;;;;;;6099176;23;20446;-75
2024/01/26 04:53:15;;;;;;;44.25;39.65;;;10.00;99.90;;;;;;6098590;23;20021;-75
2024/01/26 04:55:41;;;;;;;42.90;38.65;;;10.00;99.90;;;;;;6098858;23;20092;-74
2024/01/26 04:58:06;;;;;;;45.17;40.55;;;10.00;99.90;;;;;;6099067;23;20041;-74
2024/01/26 05:00:32;;;;;;;41.83;37.63;;;10.10;99.90;;;;;;6099540;23;20010;-75
2024/01/26 05:02:58;;;;;;;40.42;36.55;;;10.00;99.90;;;;;;6098697;23;20071;-75
2024/01/26 05:05:24;;;;;;;43.03;38.85;;;10.10;99.90;;;;;;6099733;23;20176;-75
2024/01/26 05:07:50;;;;;;;40.85;36.95;;;10.10;99.90;;;;;;6099219;23;20018;-76
2024/01/26 05:10:15;;;;;;;40.22;36.28;;;10.10;99.90;;;;;;6099397;23;20097;-75
2024/01/26 05:12:41;;;;;;;41.17;37.28;;;10.20;99.90;;;;;;6122965;23;20018;-75
2024/01/26 05:15:11;;;;;;;40.22;36.30;;;10.10;99.90;;;;;;6098750;23;20025;-75
2024/01/26 05:17:37;;;;;;;37.78;34.28;;;10.10;99.90;;;;;;6123646;23;20010;-75
2024/01/26 05:20:04;;;;;;;40.65;36.80;;;10.20;99.90;;;;;;6123560;23;20045;-75
2024/01/26 05:22:30;;;;;;;40.88;37.08;;;10.20;99.90;;;;;;6098514;23;20014;-75
2024/01/26 05:24:56;;;;;;;42.03;37.83;;;10.20;99.90;;;;;;6098726;23;20096;-75
2024/01/26 05:27:21;;;;;;;44.22;39.80;;;10.10;99.90;;;;;;6099027;23;20060;-75
2024/01/26 05:29:47;;;;;;;44.25;39.55;;;10.20;99.90;;;;;;6098644;23;20014;-75
2024/01/26 05:32:14;;;;;;;45.92;41.10;;;10.20;99.90;;;;;;6098164;23;20024;-75
2024/01/26 05:34:40;;;;;;;50.65;43.17;;;10.20;99.90;;;;;;6098540;23;20014;-75
2024/01/26 05:37:06;;;;;;;46.92;41.80;;;10.20;99.90;;;;;;6098779;23;20010;-75
2024/01/26 05:39:34;;;;;;;46.22;41.35;;;10.10;99.90;;;;;;6123260;23;20053;-75
2024/01/26 05:42:00;;;;;;;48.05;42.60;;;10.20;99.90;;;;;;6098451;23;20533;-74
2024/01/26 05:44:27;;;;;;;46.00;41.17;;;10.20;99.90;;;;;;6098073;23;20018;-75
2024/01/26 05:46:52;;;;;;;47.67;42.05;;;10.20;99.90;;;;;;6097991;23;20021;-73
2024/01/26 05:49:18;;;;;;;43.35;38.92;;;10.20;99.90;;;;;;6124777;23;20265;-75
2024/01/26 05:51:44;;;;;;;43.63;38.85;;;10.20;99.90;;;;;;6121469;23;20017;-77
2024/01/26 05:54:11;;;;;;;43.42;38.53;;;10.20;99.90;;;;;;6097953;23;20097;-77
2024/01/26 05:56:40;;;;;;;43.10;38.47;;;10.20;99.90;;;;;;6122876;23;20021;-74
2024/01/26 05:59:06;;;;;;;49.50;41.50;;;10.20;99.90;;;;;;6121669;23;20358;-76
2024/01/26 06:01:32;;;;;;;56.92;42.75;;;10.20;99.90;;;;;;6121538;23;20010;-75
2024/01/26 06:03:57;;;;;;;51.45;40.65;;;10.20;99.90;;;;;;6120742;23;20016;-77
2024/01/26 06:06:25;;;;;;;53.47;41.30;;;10.30;99.90;;;;;;6122757;23;20478;-78
2024/01/26 06:08:54;;;;;;;45.88;38.53;;;10.20;99.90;;;;;;6122576;23;20021;-76
2024/01/26 06:11:20;;;;;;;49.22;39.67;;;10.20;99.90;;;;;;6096255;23;20014;-77
2024/01/26 06:13:46;;;;;;;45.83;37.72;;;10.20;99.90;;;;;;6096988;23;20021;-77
2024/01/26 06:16:13;;;;;;;45.90;38.15;;;10.30;99.90;;;;;;6098371;23;20021;-76
2024/01/26 06:18:39;;;;;;;60.03;40.67;;;10.20;99.90;;;;;;6098568;23;20018;-76
2024/01/26 06:21:05;;;;;;;44.60;35.95;;;10.20;99.90;;;;;;6122662;23;20020;-76
2024/01/26 06:23:30;;;;;;;38.95;34.00;;;10.20;99.90;;;;;;6098177;23;20104;-76
2024/01/26 06:25:56;;;;;;;36.80;33.05;;;10.20;99.90;;;;;;6097011;23;20100;-77
2024/01/26 06:28:22;;;;;;;43.33;34.75;;;10.20;99.90;;;;;;6121591;23;20049;-78
2024/01/26 06:30:59;;;;;;;46.58;34.80;;;10.20;99.90;;;;;;6098086;23;20502;-78
2024/01/26 06:33:25;;;;;;;41.67;33.55;;;10.30;99.90;;;;;;6097685;23;20073;-79
2024/01/26 06:35:50;;;;;;;47.15;35.45;;;10.20;99.90;;;;;;6122449;23;20017;-78
2024/01/26 06:38:16;;;;;;;47.70;35.67;;;10.20;99.90;;;;;;6098573;23;20010;-78
2024/01/26 06:40:42;;;;;;;48.67;35.85;;;10.20;99.90;;;;;;6098513;23;20045;-77
2024/01/26 06:43:12;;;;;;;38.60;32.13;;;10.20;99.90;;;;;;6097418;23;20018;-78
2024/01/26 06:45:44;;;;;;;42.90;34.13;;;10.20;99.90;;;;;;6099534;23;20021;-77
2024/01/26 06:48:11;;;;;;;39.33;31.67;;;10.20;99.90;;;;;;6099968;23;20308;-77
2024/01/26 06:50:40;;;;;;;43.50;32.72;;;10.20;99.90;;;;;;6099653;23;20014;-78
2024/01/26 06:53:09;;;;;;;38.25;31.33;;;10.20;99.90;;;;;;6123622;23;20089;-78
2024/01/26 06:55:34;;;;;;;38.40;32.40;;;10.20;99.90;;;;;;6099822;23;20040;-79
2024/01/26 06:58:05;;;;;;;39.30;31.65;;;10.20;99.90;;;;;;6100350;23;20050;-78
2024/01/26 07:00:34;;;;;;;45.72;32.83;;;10.20;99.90;;;;;;6099391;23;20394;-79
2024/01/26 07:03:05;;;;;;;38.47;29.92;;;10.20;99.90;;;;;;6099940;23;20018;-77
2024/01/26 07:05:46;;;;;;;42.47;30.40;;;10.20;99.90;;;;;;6099523;23;20140;-78
2024/01/26 07:08:14;;;;;;;43.38;30.30;;;10.30;99.90;;;;;;6098251;23;20029;-79
2024/01/26 07:10:41;;;;;;;39.22;30.33;;;10.20;99.90;;;;;;6099541;23;20017;-79
2024/01/26 07:13:15;;;;;;;36.45;28.23;;;10.20;99.90;;;;;;6100389;23;20026;-79
2024/01/26 07:15:47;;;;;;;32.95;26.75;;;10.20;99.90;;;;;;6100642;23;20018;-79
2024/01/26 07:18:13;;;;;;;31.70;27.65;;;10.20;99.90;;;;;;6099687;23;20020;-78
2024/01/26 07:20:41;;;;;;;37.83;27.58;;;10.20;99.90;;;;;;6124297;23;20428;-78
2024/01/26 07:23:16;;;;;;;33.60;26.10;;;10.20;99.90;;;;;;6099900;23;20018;-77
2024/01/26 07:25:44;;;;;;;41.38;27.50;;;10.20;99.90;;;;;;6099559;23;20010;-77
2024/01/26 07:28:12;;;;;;;28.05;24.45;;;10.20;99.90;;;;;;6123914;23;20014;-77
2024/01/26 07:30:47;;;;;;;31.00;23.63;;;10.20;99.90;;;;;;6124335;23;20022;-78
2024/01/26 07:33:18;;;;;;;28.35;21.40;;;10.30;99.90;;;;;;6099929;23;20018;-78
2024/01/26 07:35:46;;;;;;;27.17;20.33;;;10.30;99.90;;;;;;6098564;23;20022;-77
2024/01/26 07:38:28;;;;;;;25.40;19.52;;;10.20;99.90;;;;;;6101550;23;20138;-79
2024/01/26 07:41:03;;;;;;;24.85;19.23;;;10.30;99.90;;;;;;6099999;23;20100;-78
2024/01/26 07:43:32;;;;;;;19.17;16.67;;;10.30;99.90;;;;;;6098623;23;20014;-77
2024/01/26 07:45:57;;;;;;;17.90;16.13;;;10.20;99.90;;;;;;6124026;23;20018;-77
2024/01/26 07:48:25;;;;;;;22.63;17.73;;;10.30;99.90;;;;;;6123911;23;20064;-78
2024/01/26 07:50:54;;;;;;;20.30;17.63;;;10.40;99.90;;;;;;6100083;23;20021;-77
2024/01/26 07:53:19;;;;;;;18.88;16.88;;;10.30;99.90;;;;;;6099293;23;20020;-78
2024/01/26 07:55:53;;;;;;;19.55;17.55;;;10.40;99.90;;;;;;6099291;23;20022;-78
2024/01/26 07:58:24;;;;;;;24.10;19.15;;;10.40;99.90;;;;;;6098782;23;20017;-78
2024/01/26 08:00:50;;;;;;;22.73;19.58;;;10.40;99.90;;;;;;6097821;23;20021;-78
2024/01/26 08:03:15;;;;;;;21.10;18.92;;;10.40;99.90;;;;;;6099162;23;20025;-77
2024/01/26 08:05:41;;;;;;;26.60;20.48;;;10.40;99.90;;;;;;6099650;23;20049;-77
2024/01/26 08:08:07;;;;;;;27.95;21.65;;;10.40;99.90;;;;;;6123799;23;20347;-78
2024/01/26 08:10:33;;;;;;;26.10;21.67;;;10.40;99.90;;;;;;6123760;23;20010;-78
2024/01/26 08:12:59;;;;;;;25.90;21.13;;;10.40;99.90;;;;;;6098798;23;20018;-78
2024/01/26 08:15:28;;;;;;;24.67;22.08;;;10.50;99.90;;;;;;6099230;23;20020;-78
2024/01/26 08:17:56;;;;;;;29.23;24.92;;;10.50;99.90;;;;;;6123541;23;20017;-77
2024/01/26 08:20:22;;;;;;;27.98;25.00;;;10.50;99.90;;;;;;6123331;23;20017;-77
2024/01/26 08:22:50;;;;;;;26.65;23.95;;;10.50;99.90;;;;;;6099516;23;20478;-77
2024/01/26 08:25:16;;;;;;;28.35;25.42;;;10.50;99.90;;;;;;6099113;23;20025;-78
2024/01/26 08:27:42;;;;;;;27.40;24.55;;;10.50;99.90;;;;;;6098449;23;20014;-78
2024/01/26 08:30:08;;;;;;;30.90;26.85;;;10.50;99.90;;;;;;6099014;23;20370;-77
2024/01/26 08:32:36;;;;;;;37.35;27.88;;;10.50;99.90;;;;;;6099401;23;20108;-79
2024/01/26 08:35:09;;;;;;;28.08;25.30;;;10.50;99.90;;;;;;6099388;23;20022;-78
2024/01/26 08:37:38;;;;;;;;;;;10.50;99.90;;;;;;6099414;23;20472;-76
2024/01/26 08:40:06;;;;;;;32.47;29.00;;;10.50;99.90;;;;;;6099690;23;19944;-77
2024/01/26 08:42:33;;;;;;;32.80;29.48;;;10.50;99.90;;;;;;6098875;23;20073;-77
2024/01/26 08:44:59;;;;;;;33.08;29.60;;;10.50;99.90;;;;;;6099347;23;20148;-77
2024/01/26 08:47:34;;;;;;;41.47;33.10;;;10.50;99.90;;;;;;6098660;23;20193;-78
2024/01/26 08:50:02;;;;;;;47.28;35.20;;;10.50;99.90;;;;;;6099032;23;20097;-79
2024/01/26 08:52:28;;;;;;;40.85;35.45;;;10.50;99.90;;;;;;6099230;23;20096;-78
2024/01/26 08:54:59;;;;;;;44.58;36.47;;;10.50;99.90;;;;;;6098628;23;20049;-79
2024/01/26 08:57:25;;;;;;;50.17;39.10;;;10.50;99.90;;;;;;6122942;23;20021;-78
2024/01/26 08:59:54;;;;;;;44.88;37.42;;;10.50;99.90;;;;;;6099185;23;20045;-78
2024/01/26 09:02:28;;;;;;;44.30;37.45;;;10.50;99.90;;;;;;6098738;23;20014;-77
2024/01/26 09:04:56;;;;;;;44.50;38.53;;;10.60;99.90;;;;;;6098786;23;20339;-78
2024/01/26 09:07:24;;;;;;;56.10;41.13;;;10.50;99.90;;;;;;6098938;23;20459;-78
2024/01/26 09:09:50;;;;;;;39.80;35.50;;;10.60;99.90;;;;;;6099225;23;20021;-77
2024/01/26 09:12:16;;;;;;;42.08;37.22;;;10.50;99.90;;;;;;6123063;23;20018;-77
2024/01/26 09:14:41;;;;;;;35.35;31.88;;;10.60;99.90;;;;;;6098139;23;20014;-77
2024/01/26 09:17:08;;;;;;;38.75;33.05;;;10.70;99.90;;;;;;6098629;23;20470;-78
2024/01/26 09:19:36;;;;;;;39.55;31.95;;;10.70;99.90;;;;;;6099301;23;20020;-77
2024/01/26 09:22:03;;;;;;;25.67;20.20;;;10.60;99.90;;;;;;6099036;23;20014;-78
2024/01/26 09:24:29;;;;;;;22.00;15.40;;;10.70;99.90;;;;;;6122843;23;20021;-78
2024/01/26 09:26:55;;;;;;;9.43;6.13;;;10.60;99.90;;;;;;6098218;23;20014;-76
2024/01/26 09:29:22;;;;;;;5.07;1.80;;;10.60;99.90;;;;;;6123782;23;20077;-75
2024/01/26 09:31:50;;;;;;;4.03;1.40;;;10.30;99.90;;;;;;6123088;23;20022;-75
2024/01/26 09:34:18;;;;;;;4.45;1.52;;;9.90;99.90;;;;;;6123147;23;20022;-75
2024/01/26 09:36:43;;;;;;;4.18;1.20;;;9.40;99.90;;;;;;6123399;23;20105;-76
2024/01/26 09:39:09;;;;;;;4.53;1.55;;;9.10;99.90;;;;;;6098204;23;20107;-76
2024/01/26 09:41:35;;;;;;;3.95;1.20;;;8.90;99.90;;;;;;6122901;23;20313;-76
2024/01/26 09:44:01;;;;;;;3.70;1.30;;;8.70;99.90;;;;;;6098655;23;20010;-76
2024/01/26 09:46:27;;;;;;;8.38;1.45;;;8.60;99.90;;;;;;6123359;23;20021;-75
2024/01/26 09:48:57;;;;;;;7.18;1.50;;;8.50;99.90;;;;;;6098398;23;20017;-75
2024/01/26 09:51:27;;;;;;;5.82;1.50;;;8.40;99.90;;;;;;6123017;23;20076;-76
2024/01/26 09:53:58;;;;;;;6.38;1.45;;;8.40;99.90;;;;;;6098528;23;20017;-75
2024/01/26 09:56:26;;;;;;;7.47;1.60;;;8.40;99.90;;;;;;6098948;23;20439;-75
2024/01/26 09:58:52;;;;;;;7.30;1.70;;;8.30;99.90;;;;;;6124251;23;20061;-74
2024/01/26 10:01:23;;;;;;;6.32;1.58;;;8.20;99.90;;;;;;6123091;23;20021;-75
2024/01/26 10:03:52;;;;;;;8.63;1.65;;;8.30;99.90;;;;;;6123066;23;20061;-75
2024/01/26 10:06:19;;;;;;;7.13;1.70;;;8.10;99.90;;;;;;6098939;23;20334;-75
2024/01/26 10:08:45;;;;;;;9.73;2.08;;;8.00;99.90;;;;;;6122729;23;20018;-75
2024/01/26 10:11:10;;;;;;;10.65;2.28;;;8.00;99.90;;;;;;6098184;23;20014;-75
2024/01/26 10:13:37;;;;;;;13.43;2.50;;;8.10;99.90;;;;;;6098048;23;20128;-74
2024/01/26 10:16:11;;;;;;;12.40;2.70;;;8.20;99.90;;;;;;6098150;23;20017;-75
2024/01/26 10:18:47;;;;;;;14.55;2.72;;;8.10;99.90;;;;;;6098299;23;20458;-74
2024/01/26 10:21:15;;;;;;;18.30;3.03;;;8.10;99.90;;;;;;6124773;23;20473;-75
2024/01/26 10:23:42;;;;;;;15.55;3.40;;;8.10;99.90;;;;;;6123883;23;20021;-74
2024/01/26 10:26:11;;;;;;;16.85;3.58;;;8.10;99.90;;;;;;6100342;23;20056;-74
2024/01/26 10:28:37;;;;;;;16.55;3.22;;;8.10;99.90;;;;;;6124338;23;20048;-75
2024/01/26 10:31:03;;;;;;;17.60;3.50;;;8.10;99.90;;;;;;6124641;23;20058;-74
2024/01/26 10:33:31;;;;;;;17.05;4.13;;;8.10;99.90;;;;;;6124828;23;20104;-74
2024/01/26 10:35:59;;;;;;;15.73;3.90;;;8.20;99.90;;;;;;6100108;23;20021;-75
2024/01/26 10:38:31;;;;;;;16.83;3.80;;;8.30;99.90;;;;;;6124104;23;20014;-74
2024/01/26 10:41:04;;;;;;;17.25;3.42;;;8.30;99.90;;;;;;6124524;23;20006;-75
2024/01/26 10:43:31;;;;;;;22.13;4.55;;;8.40;99.90;;;;;;6124260;23;20053;-74
2024/01/26 10:45:58;;;;;;;19.48;4.05;;;8.50;99.90;;;;;;6100398;23;20018;-75
2024/01/26 10:48:24;;;;;;;18.15;4.07;;;8.60;99.90;;;;;;6100086;23;20014;-74
2024/01/26 10:50:50;;;;;;;14.68;3.80;;;8.70;99.90;;;;;;6124403;23;20010;-75
2024/01/26 10:53:17;;;;;;;19.05;4.30;;;8.60;99.90;;;;;;6099409;23;20363;-75
2024/01/26 10:55:44;;;;;;;13.52;3.72;;;8.60;99.90;;;;;;6099936;23;20108;-75
2024/01/26 10:58:09;;;;;;;19.15;4.70;;;8.60;99.90;;;;;;6100213;23;20088;-75
2024/01/26 11:00:35;;;;;;;16.05;3.78;;;8.60;99.90;;;;;;6100310;23;20052;-75
2024/01/26 11:03:02;;;;;;;18.15;4.30;;;8.60;99.90;;;;;;6123854;23;20089;-75
2024/01/26 11:05:28;;;;;;;15.32;3.58;;;8.50;99.90;;;;;;6124331;23;20017;-75
2024/01/26 11:07:54;;;;;;;18.05;4.38;;;8.50;99.90;;;;;;6099768;23;20010;-74
2024/01/26 11:10:23;;;;;;;18.13;4.28;;;8.50;99.90;;;;;;6125792;23;20014;-74
2024/01/26 11:13:03;;;;;;;20.05;4.35;;;8.50;99.90;;;;;;6099772;23;20470;-75
2024/01/26 11:15:29;;;;;;;18.58;4.07;;;8.50;99.90;;;;;;6099824;23;20028;-75
2024/01/26 11:17:57;;;;;;;21.17;4.60;;;8.40;99.90;;;;;;6124195;23;20010;-75
2024/01/26 11:20:32;;;;;;;19.83;4.60;;;8.50;99.90;;;;;;6100102;23;20018;-75
2024/01/26 11:23:12;;;;;;;16.00;4.50;;;8.40;99.90;;;;;;6123316;23;20093;-75
2024/01/26 11:25:46;;;;;;;15.77;3.92;;;8.40;99.90;;;;;;6123417;23;20018;-74
2024/01/26 11:28:15;;;;;;;19.25;4.80;;;8.40;99.90;;;;;;6123675;23;20016;-75
2024/01/26 11:30:40;;;;;;;19.67;4.68;;;8.40;99.90;;;;;;6125727;23;20010;-75
2024/01/26 11:33:37;;;;;;;15.85;4.38;;;8.40;99.90;;;;;;6099027;23;20069;-75
2024/01/26 11:36:11;;;;;;;21.40;5.03;;;8.40;99.90;;;;;;6123022;23;20022;-75
2024/01/26 11:38:38;;;;;;;19.90;3.92;;;8.40;99.90;;;;;;6099863;23;20092;-75
2024/01/26 11:41:04;;;;;;;17.83;4.32;;;8.40;99.90;;;;;;6099673;23;20018;-75
2024/01/26 11:43:30;;;;;;;18.95;4.55;;;8.20;99.90;;;;;;6100101;23;20092;-75
2024/01/26 11:45:56;;;;;;;18.27;4.30;;;8.20;99.90;;;;;;6100111;23;20021;-75
2024/01/26 11:48:22;;;;;;;18.40;3.88;;;8.20;99.90;;;;;;6099666;23;20010;-75
2024/01/26 11:50:48;;;;;;;20.48;4.55;;;8.10;99.90;;;;;;6099192;23;20049;-75
2024/01/26 11:53:15;;;;;;;20.77;4.25;;;8.10;99.90;;;;;;6098702;23;20049;-75
2024/01/26 11:55:42;;;;;;;18.85;4.45;;;8.10;99.90;;;;;;6099781;23;20332;-75
2024/01/26 11:58:09;;;;;;;18.50;4.65;;;8.00;99.90;;;;;;6099358;23;20089;-74
2024/01/26 12:00:35;;;;;;;22.35;4.85;;;8.00;99.90;;;;;;6099891;23;20014;-75
2024/01/26 12:03:05;;;;;;;22.20;4.72;;;8.00;99.90;;;;;;6099156;23;20018;-75
2024/01/26 12:05:33;;;;;;;18.30;4.70;;;8.00;99.90;;;;;;6098943;23;20048;-75
2024/01/26 12:07:59;;;;;;;20.45;4.68;;;8.00;99.90;;;;;;6099424;23;20010;-75
2024/01/26 12:10:25;;;;;;;23.63;5.13;;;8.00;99.90;;;;;;6123741;23;20042;-75
2024/01/26 12:12:51;;;;;;;23.10;5.30;;;8.00;99.90;;;;;;6123785;23;20346;-75
2024/01/26 12:15:17;;;;;;;24.42;5.35;;;8.00;99.90;;;;;;6099030;23;20141;-75
2024/01/26 12:17:43;;;;;;;20.58;5.32;;;7.90;99.90;;;;;;6099543;23;20025;-75
2024/01/26 12:20:09;;;;;;;22.02;5.22;;;7.90;99.90;;;;;;6099089;23;20014;-75
2024/01/26 12:22:36;;;;;;;24.35;5.47;;;7.90;99.90;;;;;;6099445;23;20041;-75
2024/01/26 12:25:05;;;;;;;19.75;5.10;;;7.90;99.90;;;;;;6123755;23;20526;-76
2024/01/26 12:27:31;;;;;;;21.85;6.13;;;7.80;99.90;;;;;;6098966;23;20013;-75
2024/01/26 12:29:56;;;;;;;19.27;4.32;;;7.90;99.90;;;;;;6098214;23;20013;-75
2024/01/26 12:32:22;;;;;;;24.08;5.32;;;7.80;99.90;;;;;;6099066;23;20020;-75
2024/01/26 12:34:50;;;;;;;19.35;4.90;;;7.80;99.90;;;;;;6098808;23;20475;-75